PTY weather

Tocumen International Airport
Tocumen, Panamá Province, Panama

Public forecast

Using degrees Celsius for public forecast. Weather courtesy of forecast.io.

Current aviation weather report (METAR) for Tocumen International Airport

Retrieved 2019/12/16 04:00 UTC (34 minutes ago):

MPTO 160400Z 29005KT 9999 FEW018 25/23 Q1010 NOSIG

Aviation forecast (TAF) for Tocumen International Airport

Retrieved 2019-12-16 00:09 UTC (4 hours ago):

TAF MPTO 152300Z 1600/1706 06006KT 9999 FEW018 TEMPO 1608/1610 VRB02KT PROB30 TEMPO 1618/1620 18006KT 6000 TSRA SCT015CB BKN090